Latest Weather Observations for Wagga Wagga

IDN60801

Issued at 3:32 am EST Tuesday 5 May 2026 (issued every 10 minutes, with the page automatically refreshed every 10 minutes)

About weather observations | Map of weather stations | Latest weather observations for NSW | Other Formats
Station Details ID: 072150 Name: WAGGA WAGGA AMO Lat: -35.16 Lon: 147.46 Height: 212.0 m
Data from the previous 72 hours. | See also: Recent months at Wagga Wagga
Date/Time
EST
Temp
°C
App
Temp
°C
Dew
Point
°C
Rel
Hum
%
Delta-T
°C
Wind Press
QNH
hPa
Press
MSL
hPa
Rain since
9am
mm
Dir  Spd
km/h
Gust
km/h
Spd
kts
Gust
kts
05/03:30am 10.6 8.0 7.8 83 1.4 NW 11 11 6 6 1017.7 1017.8 0.2
05/03:00am 11.0 8.9 8.1 82 1.4 NW 9 11 5 6 1017.8 1017.9 0.2
05/02:30am 11.0 8.8 7.9 81 1.5 NW 9 11 5 6 1017.9 1018.0 0.2
05/02:00am 11.2 9.0 7.7 79 1.7 WNW 9 13 5 7 1017.8 1017.9 0.2
05/01:30am 11.6 9.4 7.7 77 1.9 NW 9 11 5 6 1017.8 1017.9 0.2
05/01:00am 11.9 9.3 7.6 75 2.1 NW 11 15 6 8 1017.6 1017.7 0.2
05/12:30am 11.0 9.4 8.2 83 1.4 WNW 6 9 3 5 1017.7 1017.8 0.2
05/12:00am 9.8 9.3 7.9 88 0.9 CALM 0 0 0 0 1017.6 1017.7 0.2
 
Date/Time
EST
Temp
°C
App
Temp
°C
Dew
Point
°C
Rel
Hum
%
Delta-T
°C
Wind Press
QNH
hPa
Press
MSL
hPa
Rain since
9am
mm
Dir  Spd
km/h
Gust
km/h
Spd
kts
Gust
kts
04/11:30pm 10.9 9.8 8.5 85 1.2 E 4 7 2 4 1017.6 1017.7 0.2
04/11:00pm 10.5 8.6 7.6 82 1.4 ENE 7 7 4 4 1017.7 1017.8 0.2
04/10:30pm 10.7 9.1 7.8 82 1.4 ENE 6 7 3 4 1018.0 1018.1 0.2
04/10:00pm 11.1 8.9 7.8 80 1.6 E 9 9 5 5 1018.1 1018.2 0.2
04/09:30pm 12.1 10.8 7.8 75 2.1 NE 4 7 2 4 1017.9 1018.0 0.2
04/09:00pm 11.9 10.3 8.0 77 1.9 NE 6 7 3 4 1017.7 1017.8 0.2
04/08:30pm 11.6 10.9 8.5 81 1.5 NE 2 6 1 3 1017.4 1017.5 0.2
04/08:00pm 12.0 11.6 8.3 78 1.8 CALM 0 0 0 0 1017.2 1017.3 0.2
04/07:30pm 11.8 11.3 7.7 76 2.0 CALM 0 0 0 0 1016.8 1016.9 0.2
04/07:00pm 13.0 11.8 7.9 71 2.5 NNW 4 6 2 3 1016.5 1016.6 0.2
04/06:30pm 14.2 12.9 7.7 65 3.2 NNW 4 7 2 4 1016.0 1016.0 0.2
04/06:00pm 14.5 12.4 6.8 60 3.8 NW 7 9 4 5 1015.6 1015.6 0.2
04/05:30pm 16.2 13.4 6.9 54 4.6 WNW 11 13 6 7 1015.3 1015.3 0.2
04/05:00pm 17.7 14.2 7.2 50 5.3 WNW 15 19 8 10 1015.2 1015.2 0.2
04/04:30pm 18.5 15.3 7.0 47 5.8 WNW 13 19 7 10 1015.0 1015.0 0.2
04/04:00pm 18.9 15.1 7.4 47 5.9 NW 17 24 9 13 1015.0 1015.0 0.2
04/03:30pm 19.2 15.3 7.3 46 6.1 NNW 17 20 9 11 1015.0 1015.0 0.2
04/03:00pm 18.4 14.5 6.9 47 5.8 WNW 17 24 9 13 1014.9 1014.9 0.2
04/02:30pm 19.3 16.1 8.6 50 5.6 NNW 15 22 8 12 1014.9 1014.9 0.2
04/02:00pm 18.6 15.7 6.4 45 6.1 WNW 11 19 6 10 1014.8 1014.8 0.2
04/01:30pm 18.1 15.3 8.4 53 5.0 W 13 19 7 10 1014.9 1014.9 0.2
04/01:00pm 17.8 14.8 9.4 58 4.4 WNW 15 20 8 11 1015.3 1015.3 0.2
04/12:30pm 16.8 16.1 11.3 70 3.0 SW 6 9 3 5 1015.5 1015.5 0.0
04/12:00pm 16.2 15.2 10.9 71 2.9 N 7 11 4 6 1016.0 1016.0 0.0
04/11:49am 16.5 15.3 11.6 73 2.7 N 9 15 5 8 1016.1 1016.1 0.0
04/11:30am 16.2 16.1 12.2 77 2.2 N 4 13 2 7 1016.5 1016.6 0.0
04/11:00am 14.8 15.2 11.4 80 1.8 CALM 0 0 0 0 1016.7 1016.8 0.0
04/10:30am 14.3 13.6 11.5 83 1.5 N 6 11 3 6 1016.6 1016.7 0.0
04/10:00am 14.4 14.6 11.7 84 1.5 NNW 2 7 1 4 1016.6 1016.7 0.0
04/09:30am 13.4 13.5 11.6 89 1.0 NW 2 9 1 5 1016.7 1016.8 0.0
04/09:16am 13.4 13.4 11.3 87 1.1 WNW 2 7 1 4 1016.6 1016.7 0.0
04/09:11am 13.4 12.8 11.8 90 0.9 NW 6 7 3 4 1016.7 1016.8 0.0
04/09:00am 12.9 12.6 11.5 91 0.7 W 4 7 2 4 1016.8 1016.9 14.4
04/08:57am 12.9 12.2 11.3 90 0.9 W 6 7 3 4 1016.7 1016.8 14.4
04/08:30am 12.6 11.7 11.5 93 0.6 NNW 7 9 4 5 1016.7 1016.8 14.4
04/08:03am 12.5 13.0 11.7 95 0.4 CALM 0 0 0 0 1016.6 1016.7 14.4
04/08:00am 12.4 12.9 11.6 95 0.4 CALM 0 0 0 0 1016.5 1016.6 14.4
04/07:30am 12.1 12.6 11.5 96 0.3 CALM 0 0 0 0 1016.3 1016.4 14.4
04/07:00am 12.1 12.6 11.5 96 0.3 CALM 0 0 0 0 1016.1 1016.1 14.0
04/06:35am 12.0 11.7 11.4 96 0.3 W 4 9 2 5 1015.6 1015.6 14.0
04/06:30am 12.0 10.7 11.4 96 0.3 W 9 11 5 6 1015.4 1015.4 14.0
04/06:00am 12.0 11.3 11.4 96 0.3 N 6 9 3 5 1015.2 1015.2 14.0
04/05:30am 11.9 10.2 11.1 95 0.4 N 11 13 6 7 1015.5 1015.5 13.6
04/05:02am 11.8 10.8 10.9 94 0.5 N 7 9 4 5 1015.3 1015.3 12.8
04/05:00am 11.8 10.8 10.9 94 0.5 N 7 9 4 5 1015.3 1015.3 12.8
04/04:46am 11.9 10.5 10.8 93 0.6 NNW 9 13 5 7 1015.5 1015.5 12.2
04/04:30am 12.2 10.4 10.8 91 0.7 WNW 11 13 6 7 1015.4 1015.4 11.4
04/04:00am 12.7 10.6 11.3 91 0.7 NW 13 19 7 10 1015.4 1015.4 11.0
04/03:30am 13.1 12.2 11.5 90 0.9 NNW 7 9 4 5 1015.3 1015.3 10.6
04/03:00am 13.3 11.7 11.5 89 1.0 W 11 17 6 9 1015.2 1015.2 10.6
04/02:43am 13.4 11.9 12.0 91 0.8 WSW 11 15 6 8 1015.2 1015.2 10.6
04/02:30am 13.8 11.5 13.0 95 0.4 W 17 26 9 14 1015.4 1015.4 10.6
04/02:17am 13.9 11.3 13.1 95 0.4 W 19 26 10 14 1015.5 1015.5 10.6
04/02:00am 14.0 10.0 12.9 93 0.6 W 26 35 14 19 1015.3 1015.3 10.4
04/01:58am 14.1 9.7 13.0 93 0.6 WNW 28 39 15 21 1015.4 1015.4 10.2
04/01:39am 17.2 14.7 16.1 93 0.7 N 24 33 13 18 1014.7 1014.7 9.0
04/01:30am 17.1 14.9 16.0 93 0.7 NNE 22 32 12 17 1014.7 1014.7 9.0
04/01:00am 17.1 15.5 16.0 93 0.7 NNE 19 30 10 16 1014.9 1014.9 8.8
04/12:46am 17.1 15.5 16.1 94 0.6 NNE 19 28 10 15 1015.2 1015.2 8.8
04/12:30am 17.1 15.9 16.1 94 0.6 NNE 17 28 9 15 1015.3 1015.3 8.6
04/12:23am 17.2 16.0 16.2 94 0.6 NNE 17 28 9 15 1015.6 1015.6 8.4
04/12:22am 17.2 16.4 16.2 94 0.6 NNE 15 26 8 14 1015.6 1015.6 8.4
04/12:11am 17.2 16.4 16.2 94 0.6 NNE 15 19 8 10 1015.7 1015.7 8.2
04/12:00am 17.2 16.0 16.2 94 0.6 N 17 26 9 14 1015.8 1015.8 8.2
 
Date/Time
EST
Temp
°C
App
Temp
°C
Dew
Point
°C
Rel
Hum
%
Delta-T
°C
Wind Press
QNH
hPa
Press
MSL
hPa
Rain since
9am
mm
Dir  Spd
km/h
Gust
km/h
Spd
kts
Gust
kts
03/11:30pm 17.4 15.7 16.3 93 0.7 NNE 20 30 11 16 1016.1 1016.1 7.2
03/11:00pm 17.4 16.7 16.4 94 0.6 N 15 20 8 11 1016.4 1016.5 6.8
03/10:30pm 17.2 16.4 16.2 94 0.6 N 15 22 8 12 1016.7 1016.8 6.0
03/10:00pm 17.3 16.9 16.3 94 0.6 N 13 19 7 10 1016.5 1016.6 5.2
03/09:30pm 17.1 17.9 16.3 95 0.5 N 7 9 4 5 1016.5 1016.6 4.6
03/09:00pm 17.3 18.3 16.3 94 0.6 N 6 9 3 5 1016.5 1016.6 4.2
03/08:38pm 17.4 17.8 16.4 94 0.6 N 9 11 5 6 1016.5 1016.6 3.6
03/08:37pm 17.4 17.8 16.4 94 0.6 N 9 11 5 6 1016.6 1016.7 3.6
03/08:30pm 17.4 17.8 16.4 94 0.6 N 9 13 5 7 1016.4 1016.5 3.4
03/08:16pm 17.5 17.9 16.4 93 0.7 N 9 15 5 8 1016.5 1016.6 2.4
03/08:00pm 17.8 17.8 16.3 91 0.9 N 11 15 6 8 1016.5 1016.6 1.6
03/07:30pm 17.7 18.4 16.2 91 0.9 N 7 9 4 5 1016.5 1016.6 1.6
03/07:00pm 17.9 17.8 16.1 89 1.1 NNW 11 15 6 8 1016.3 1016.4 1.6
03/06:47pm 18.1 17.4 16.3 89 1.1 NNW 15 24 8 13 1016.4 1016.5 1.6
03/06:35pm 17.8 18.8 16.8 94 0.6 NNW 7 13 4 7 1016.6 1016.7 1.6
03/06:30pm 17.6 19.2 16.8 95 0.5 WNW 4 11 2 6 1016.6 1016.7 1.2
03/06:00pm 17.7 18.6 16.6 93 0.7 NW 7 9 4 5 1016.2 1016.3 0.8
03/05:30pm 17.8 17.9 16.5 92 0.8 NNW 11 15 6 8 1016.0 1016.0 0.8
03/05:00pm 17.9 17.9 16.2 90 1.0 NNE 11 15 6 8 1015.2 1015.2 0.6
03/04:35pm 19.5 18.2 15.8 79 2.2 N 17 41 9 22 1015.3 1015.3 0.0
03/04:30pm 19.9 19.7 15.7 77 2.5 N 11 15 6 8 1015.0 1015.0 0.0
03/04:00pm 20.9 20.1 15.2 70 3.4 N 13 20 7 11 1014.9 1014.9 0.0
03/03:30pm 23.0 20.0 13.8 56 5.4 NNW 22 33 12 18 1015.4 1015.4 0.0
03/03:00pm 22.8 21.2 14.9 61 4.7 NNW 17 26 9 14 1015.3 1015.3 0.0
03/02:30pm 23.4 19.2 13.6 54 5.8 N 28 37 15 20 1015.4 1015.4 0.0
03/02:00pm 23.5 20.5 13.7 54 5.8 N 22 32 12 17 1015.6 1015.6 0.0
03/01:30pm 23.5 20.5 13.7 54 5.8 N 22 32 12 17 1016.0 1016.0 0.0
03/01:00pm 23.9 19.3 13.4 51 6.2 N 30 41 16 22 1016.2 1016.3 0.0
03/12:30pm 23.9 18.9 13.4 51 6.2 N 32 41 17 22 1016.6 1016.7 0.0
03/12:10pm 23.8 19.6 13.4 52 6.1 N 28 46 15 25 1016.8 1016.9 0.0
03/12:00pm 23.9 20.7 13.2 51 6.2 N 22 32 12 17 1017.0 1017.1 0.0
03/11:30am 23.3 18.9 12.9 52 6.0 N 28 43 15 23 1017.3 1017.4 0.0
03/11:13am 24.5 20.4 13.7 51 6.4 N 28 48 15 26 1017.6 1017.7 0.0
03/11:00am 23.9 19.7 13.4 51 6.2 N 28 41 15 22 1017.7 1017.8 0.0
03/10:30am 22.2 18.0 12.5 54 5.6 N 26 39 14 21 1018.1 1018.2 0.0
03/10:00am 21.2 18.1 12.3 57 5.1 N 20 30 11 16 1018.5 1018.6 0.0
03/09:30am 20.2 16.7 12.2 60 4.5 N 22 33 12 18 1018.8 1018.9 0.0
03/09:00am 20.0 17.8 12.0 60 4.5 NE 15 28 8 15 1018.8 1018.9 3.6
03/08:30am 19.6 17.1 12.4 63 4.1 NE 17 22 9 12 1018.7 1018.8 3.6
03/08:00am 19.2 16.2 12.5 65 3.8 ENE 20 26 11 14 1018.3 1018.4 3.6
03/07:30am 18.8 16.4 12.5 67 3.6 ENE 17 26 9 14 1018.0 1018.1 3.6
03/07:00am 18.6 16.2 12.8 69 3.3 ENE 17 24 9 13 1017.8 1017.9 3.6
03/06:30am 18.5 16.2 12.9 70 3.2 ENE 17 22 9 12 1017.8 1017.9 3.6
03/06:00am 18.6 16.6 12.8 69 3.3 ENE 15 19 8 10 1017.5 1017.6 3.4
03/05:30am 18.6 16.3 13.0 70 3.2 E 17 20 9 11 1017.4 1017.5 3.4
03/05:00am 18.6 16.2 12.8 69 3.3 ENE 17 28 9 15 1017.3 1017.4 3.4
03/04:30am 17.4 15.3 13.7 79 2.1 E 17 22 9 12 1017.3 1017.4 3.4
03/04:00am 17.2 16.0 14.1 82 1.8 SE 13 15 7 8 1017.6 1017.7 3.4
03/03:30am 16.9 16.6 14.5 86 1.4 ESE 9 11 5 6 1017.6 1017.7 3.4
03/03:00am 16.2 15.1 14.2 88 1.1 ESE 13 15 7 8 1017.7 1017.8 3.4
03/02:30am 16.5 16.3 14.7 89 1.0 ESE 9 11 5 6 1018.0 1018.1 3.4
03/02:00am 16.3 16.5 14.8 91 0.9 ESE 7 9 4 5 1018.3 1018.4 3.4
03/01:48am 16.2 15.3 14.9 92 0.8 ESE 13 19 7 10 1018.4 1018.5 3.4
03/01:30am 16.5 15.4 15.4 93 0.6 WSW 15 22 8 12 1018.8 1018.9 2.8
03/01:29am 16.4 15.3 15.3 93 0.6 WSW 15 22 8 12 1018.9 1019.0 2.4
03/01:00am 16.5 17.3 14.9 90 0.9 E 4 9 2 5 1019.1 1019.1 1.0
03/12:30am 16.5 17.3 14.9 90 0.9 ESE 4 13 2 7 1019.2 1019.2 0.8
03/12:00am 16.9 18.5 14.9 88 1.2 CALM 0 0 0 0 1018.9 1019.0 0.6
 
Date/Time
EST
Temp
°C
App
Temp
°C
Dew
Point
°C
Rel
Hum
%
Delta-T
°C
Wind Press
QNH
hPa
Press
MSL
hPa
Rain since
9am
mm
Dir  Spd
km/h
Gust
km/h
Spd
kts
Gust
kts
02/11:30pm 17.5 17.0 14.8 84 1.6 SE 11 15 6 8 1018.9 1019.0 0.6
02/11:00pm 17.4 17.0 15.2 87 1.3 SSE 11 13 6 7 1019.5 1019.5 0.6
02/10:30pm 17.6 17.5 14.9 84 1.6 NW 9 15 5 8 1019.7 1019.7 0.6
02/10:00pm 19.0 18.1 12.5 66 3.7 E 9 30 5 16 1020.2 1020.3 0.0
02/09:30pm 20.2 17.7 11.1 56 5.0 E 15 15 8 8 1019.2 1019.2 0.0
02/09:00pm 20.3 18.1 10.7 54 5.3 E 13 13 7 7 1019.1 1019.1 0.0
02/08:30pm 20.5 18.3 10.9 54 5.3 ENE 13 13 7 7 1019.2 1019.2 0.0
02/08:00pm 20.2 18.4 10.9 55 5.1 ENE 11 13 6 7 1019.3 1019.3 0.0
02/07:30pm 19.9 18.1 10.9 56 5.0 E 11 13 6 7 1019.2 1019.2 0.0
02/07:00pm 20.6 18.8 10.7 53 5.4 E 11 13 6 7 1019.1 1019.1 0.0
02/06:30pm 21.1 19.6 10.6 51 5.8 ENE 9 11 5 6 1018.8 1018.9 0.0
02/06:00pm 21.7 20.3 10.8 50 6.0 NE 9 11 5 6 1018.6 1018.7 0.0
02/05:30pm 22.7 21.3 10.8 47 6.6 ENE 9 13 5 7 1018.5 1018.6 0.0
02/05:00pm 23.4 21.9 10.5 44 7.2 NE 9 15 5 8 1018.5 1018.6 0.0
02/04:30pm 24.3 21.6 10.2 41 7.8 NNE 15 24 8 13 1018.4 1018.5 0.0
02/04:00pm 24.5 22.2 10.4 41 7.9 NE 13 20 7 11 1018.7 1018.8 0.0
02/03:30pm 24.4 20.7 10.3 41 7.9 N 20 28 11 15 1018.9 1019.0 0.0
02/03:00pm 24.5 22.0 11.1 43 7.6 NE 15 28 8 15 1018.9 1019.0 0.0
02/02:30pm 24.4 21.0 10.7 42 7.7 NNE 19 28 10 15 1019.1 1019.1 0.0
02/02:00pm 24.6 21.2 11.2 43 7.6 NE 20 30 11 16 1019.3 1019.3 0.0
02/01:30pm 24.3 20.8 10.9 43 7.5 NNE 20 33 11 18 1019.9 1019.9 0.0
02/01:00pm 23.8 19.9 10.8 44 7.3 NNE 22 32 12 17 1020.6 1020.7 0.0
02/12:30pm 23.7 20.3 11.1 45 7.1 NNE 20 28 11 15 1021.2 1021.3 0.0
02/12:00pm 23.2 19.7 10.9 46 6.9 NNE 20 32 11 17 1021.8 1021.9 0.0
02/11:30am 23.1 20.0 11.5 48 6.6 NE 19 30 10 16 1022.2 1022.3 0.0
02/11:00am 22.7 19.3 11.4 49 6.3 ENE 20 28 11 15 1022.8 1022.9 0.0
02/10:30am 21.0 17.6 11.3 54 5.4 ENE 20 30 11 16 1023.0 1023.1 0.0
02/10:00am 19.8 15.9 10.8 56 4.9 ENE 22 30 12 16 1023.2 1023.3 0.0
02/09:30am 19.2 15.2 10.5 57 4.7 E 22 32 12 17 1023.5 1023.6 0.0
02/09:00am 18.2 14.6 10.6 61 4.1 E 20 26 11 14 1023.8 1023.9 0.0
02/08:30am 17.0 14.2 10.1 64 3.7 ENE 15 19 8 10 1023.8 1023.9 0.0
02/08:00am 16.9 13.8 10.3 65 3.5 E 17 24 9 13 1023.7 1023.8 0.0
02/07:30am 15.6 12.0 9.7 68 3.1 E 19 24 10 13 1023.3 1023.4 0.0
02/07:00am 15.2 11.3 9.3 68 3.1 E 20 26 11 14 1023.0 1023.1 0.0
02/06:30am 14.8 10.5 9.2 69 2.9 E 22 26 12 14 1023.0 1023.1 0.0
02/06:00am 14.9 11.0 9.3 69 2.9 E 20 28 11 15 1022.8 1022.9 0.0
02/05:30am 15.0 11.5 8.9 67 3.1 E 17 24 9 13 1022.8 1022.9 0.0
02/05:00am 15.1 11.1 9.0 67 3.1 E 20 22 11 12 1022.8 1022.9 0.0
02/04:30am 14.8 11.0 9.0 68 3.0 E 19 22 10 12 1022.8 1022.9 0.0
02/04:00am 15.0 11.9 8.9 67 3.1 ENE 15 17 8 9 1022.8 1022.9 0.0

Other formats

Comma delimited format used in spreadsheet applications
http://www.bom.gov.au/fwo/IDN60801/IDN60801.94910.axf

JavaScript Object Notation format (JSON) in row-major order
http://www.bom.gov.au/fwo/IDN60801/IDN60801.94910.json

Data quality

Most of these data are generated automatically and are frequently updated. Quality checks on data are not normally performed. It is possible for incorrect values to appear. Refer to information at About Latest Weather Observations and please check the disclaimer before using these data.